Time;durP1;ratioP1;P1;durP2;ratioP2;P2;SDS_P1;SDS_P2;PMS_P1;PMS_P2;Temp;Humidity;BMP_temperature;BMP_pressure;BME280_temperature;BME280_humidity;BME280_pressure;Samples;Min_cycle;Max_cycle;Signal;HPM_P1;HPM_P2
2023/09/27 00:06:24;;;;;;;6.28;4.13;;;11.10;99.90;;;;;;25590646;23;20005;-53
2023/09/27 00:16:25;;;;;;;5.78;3.80;;;11.40;99.90;;;;;;25588283;23;20017;-59
2023/09/27 00:26:27;;;;;;;8.38;3.75;;;11.50;99.90;;;;;;25590202;23;20009;-53
2023/09/27 00:36:29;;;;;;;6.35;3.60;;;11.50;99.90;;;;;;25589443;23;20341;-59
2023/09/27 00:46:32;;;;;;;8.63;3.78;;;11.40;99.90;;;;;;25562855;23;20503;-51
2023/09/27 00:56:36;;;;;;;11.70;4.20;;;11.50;99.90;;;;;;25562658;23;20001;-59
2023/09/27 01:06:37;;;;;;;7.03;4.10;;;11.40;99.90;;;;;;25562343;23;20441;-53
2023/09/27 01:16:39;;;;;;;8.73;3.78;;;11.20;99.90;;;;;;25562639;23;20005;-59
2023/09/27 01:26:41;;;;;;;8.38;4.20;;;11.10;99.90;;;;;;25589299;23;20005;-59
2023/09/27 01:36:43;;;;;;;9.25;4.00;;;11.00;99.90;;;;;;25596176;23;20040;-58
2023/09/27 01:46:45;;;;;;;8.02;4.38;;;10.90;99.90;;;;;;25596228;23;20388;-52
2023/09/27 01:56:47;;;;;;;8.35;4.50;;;10.80;99.90;;;;;;25595530;23;20009;-53
2023/09/27 02:06:49;;;;;;;8.25;4.38;;;10.70;99.90;;;;;;25568800;23;20005;-60
2023/09/27 02:16:51;;;;;;;10.27;4.80;;;10.50;99.90;;;;;;25594954;23;20071;-52
2023/09/27 02:26:53;;;;;;;5.82;4.35;;;10.50;99.90;;;;;;25594315;23;20068;-53
2023/09/27 02:36:55;;;;;;;10.23;4.78;;;10.70;99.90;;;;;;25494242;23;20072;-58
2023/09/27 02:46:57;;;;;;;11.32;4.70;;;10.70;99.90;;;;;;25470406;23;20002;-59
2023/09/27 02:56:59;;;;;;;8.70;4.60;;;10.60;99.90;;;;;;25444118;23;20376;-53
2023/09/27 03:07:01;;;;;;;10.23;4.82;;;10.70;99.90;;;;;;25443828;23;20060;-52
2023/09/27 03:17:03;;;;;;;9.60;4.40;;;10.60;99.90;;;;;;25470031;23;20002;-50
2023/09/27 03:27:08;;;;;;;9.57;4.45;;;10.50;99.90;;;;;;25442479;23;20013;-58
2023/09/27 03:37:11;;;;;;;9.77;4.70;;;10.70;99.90;;;;;;25441443;23;20042;-49
2023/09/27 03:47:12;;;;;;;8.05;4.78;;;10.70;99.90;;;;;;25467373;23;20021;-59
2023/09/27 03:57:15;;;;;;;6.05;4.60;;;10.60;99.90;;;;;;25440795;23;20523;-59
2023/09/27 04:07:18;;;;;;;8.60;4.28;;;11.00;99.90;;;;;;25440459;23;20009;-59
2023/09/27 04:17:20;;;;;;;9.23;5.18;;;10.90;99.90;;;;;;25440232;23;20519;-58
2023/09/27 04:27:22;;;;;;;12.02;4.57;;;10.90;99.90;;;;;;25466287;23;20002;-50
2023/09/27 04:37:24;;;;;;;7.30;4.90;;;10.90;99.90;;;;;;25586357;23;20506;-59
2023/09/27 04:47:26;;;;;;;9.07;4.90;;;10.70;99.90;;;;;;25588580;23;20008;-53
2023/09/27 04:57:30;;;;;;;8.43;4.88;;;10.70;99.90;;;;;;25588471;23;20068;-50
2023/09/27 05:07:31;;;;;;;9.60;5.00;;;10.60;99.90;;;;;;25567712;23;20024;-59
2023/09/27 05:17:33;;;;;;;10.77;4.95;;;10.70;99.90;;;;;;25596607;23;20002;-58
2023/09/27 05:27:35;;;;;;;8.43;5.00;;;10.90;99.90;;;;;;25595987;23;20039;-58
2023/09/27 05:37:37;;;;;;;11.13;4.57;;;11.00;99.90;;;;;;25569145;23;20087;-52
2023/09/27 05:47:40;;;;;;;7.47;5.13;;;11.10;99.90;;;;;;25595476;23;20016;-58
2023/09/27 05:57:43;;;;;;;10.60;5.85;;;11.30;99.90;;;;;;25594667;23;20005;-59
2023/09/27 06:07:44;;;;;;;10.70;5.75;;;10.80;99.90;;;;;;25594450;23;20088;-50
2023/09/27 06:17:48;;;;;;;11.88;6.00;;;10.70;99.90;;;;;;25593913;23;20005;-58
2023/09/27 06:27:51;;;;;;;8.38;5.20;;;10.70;99.90;;;;;;25593093;23;20036;-59
2023/09/27 06:37:54;;;;;;;9.65;5.40;;;11.00;99.90;;;;;;25634291;23;20402;-59
2023/09/27 06:47:56;;;;;;;10.25;4.80;;;11.50;99.90;;;;;;25593087;23;20041;-54
2023/09/27 06:57:59;;;;;;;8.25;4.05;;;11.80;99.90;;;;;;25593936;23;20509;-60
2023/09/27 07:08:02;;;;;;;8.55;3.88;;;12.80;99.90;;;;;;25591844;23;20448;-51
2023/09/27 07:18:05;;;;;;;5.95;3.85;;;14.10;99.90;;;;;;25593537;23;20364;-59
2023/09/27 07:28:07;;;;;;;7.20;3.90;;;15.00;99.90;;;;;;25590864;23;20028;-50
2023/09/27 07:38:10;;;;;;;6.72;3.40;;;16.00;99.90;;;;;;25590936;23;20055;-60
2023/09/27 07:48:12;;;;;;;5.07;3.67;;;16.50;99.90;;;;;;25590525;23;20009;-60
2023/09/27 07:58:14;;;;;;;8.75;3.55;;;17.10;99.90;;;;;;25590289;23;20013;-60
2023/09/27 08:08:16;;;;;;;7.70;3.50;;;17.80;99.90;;;;;;25590064;23;20440;-60
2023/09/27 08:18:18;;;;;;;10.27;3.28;;;17.90;99.90;;;;;;25589685;23;20005;-49
2023/09/27 08:28:21;;;;;;;6.13;3.63;;;18.20;99.90;;;;;;25589227;23;20008;-60
2023/09/27 08:38:23;;;;;;;8.50;3.97;;;18.10;99.90;;;;;;25588120;23;20009;-60
2023/09/27 08:48:27;;;;;;;5.95;4.00;;;19.00;99.90;;;;;;25588651;23;20012;-60
2023/09/27 08:58:31;;;;;;;7.20;3.88;;;19.70;99.90;;;;;;25588522;23;20387;-61
2023/09/27 09:08:40;;;;;;;4.55;3.50;;;20.10;99.90;;;;;;25588209;23;20332;-60
2023/09/27 09:18:45;;;;;;;6.65;3.63;;;20.40;99.90;;;;;;25629642;23;20012;-60
2023/09/27 09:28:56;;;;;;;9.27;3.80;;;20.50;99.90;;;;;;25620540;23;20010;-61
2023/09/27 09:39:19;;;;;;;9.45;3.58;;;21.00;99.90;;;;;;25628465;23;20005;-60
2023/09/27 09:49:23;;;;;;;5.78;3.60;;;21.50;99.90;;;;;;25630451;23;20008;-60
2023/09/27 09:59:34;;;;;;;8.52;3.60;;;22.00;99.40;;;;;;25594870;23;20445;-61
2023/09/27 10:09:36;;;;;;;5.47;3.85;;;21.60;99.90;;;;;;25635852;23;20005;-60
2023/09/27 10:19:37;;;;;;;5.90;3.40;;;21.60;99.30;;;;;;25594474;23;20313;-60
2023/09/27 10:29:56;;;;;;;10.35;3.60;;;21.70;99.90;;;;;;25593616;23;20408;-60
2023/09/27 10:40:40;;;;;;;6.57;3.60;;;22.50;99.90;;;;;;25593133;23;20506;-61
2023/09/27 10:50:52;;;;;;;6.20;4.03;;;23.10;99.90;;;;;;25215101;23;20423;-59
2023/09/27 11:01:00;;;;;;;5.70;3.97;;;22.50;99.90;;;;;;25216248;23;20014;-60
2023/09/27 11:11:05;;;;;;;7.67;3.70;;;22.50;99.30;;;;;;25227445;23;20014;-59
2023/09/27 11:21:15;;;;;;;5.05;3.80;;;22.30;98.30;;;;;;25357169;23;20290;-59
2023/09/27 11:31:25;;;;;;;6.30;3.85;;;22.60;99.80;;;;;;25619380;23;20005;-59
2023/09/27 11:41:27;;;;;;;7.15;3.60;;;22.90;99.90;;;;;;25591113;23;20013;-61
2023/09/27 11:51:28;;;;;;;6.88;3.95;;;23.20;99.10;;;;;;25590828;23;20005;-61
2023/09/27 12:01:31;;;;;;;5.90;3.45;;;23.00;97.20;;;;;;25590492;23;20491;-60
2023/09/27 12:11:33;;;;;;;7.95;3.35;;;21.00;98.90;;;;;;25589819;23;20035;-61
2023/09/27 12:21:37;;;;;;;5.93;3.20;;;21.60;94.40;;;;;;25589572;23;20005;-51
2023/09/27 12:31:40;;;;;;;6.45;3.22;;;20.90;98.60;;;;;;25589713;23;20012;-61
2023/09/27 12:41:42;;;;;;;13.35;3.47;;;21.70;97.10;;;;;;25588844;23;20376;-61
2023/09/27 12:51:44;;;;;;;10.93;3.28;;;21.30;94.80;;;;;;25589753;23;20373;-61
2023/09/27 13:01:46;;;;;;;9.27;3.35;;;20.60;93.00;;;;;;25588462;23;20032;-62
2023/09/27 13:11:48;;;;;;;4.95;2.90;;;21.00;96.80;;;;;;25588303;23;20009;-62
2023/09/27 13:21:49;;;;;;;9.07;3.13;;;21.30;93.90;;;;;;25588489;23;20067;-62
2023/09/27 13:31:52;;;;;;;7.40;3.00;;;21.40;95.30;;;;;;25595732;23;20012;-61
2023/09/27 13:41:54;;;;;;;10.30;3.13;;;20.80;94.30;;;;;;25595759;23;20009;-60
2023/09/27 13:51:56;;;;;;;4.32;2.70;;;20.50;94.90;;;;;;25595067;23;20017;-61
2023/09/27 14:01:58;;;;;;;7.65;2.97;;;20.00;96.00;;;;;;25594900;23;20522;-61
2023/09/27 14:12:00;;;;;;;10.38;3.20;;;19.90;95.60;;;;;;25594666;23;20005;-61
2023/09/27 14:22:02;;;;;;;5.78;3.28;;;19.80;96.30;;;;;;25594620;23;20001;-61
2023/09/27 14:32:05;;;;;;;5.20;2.88;;;19.50;97.00;;;;;;25593598;23;20013;-54
2023/09/27 14:42:09;;;;;;;8.30;3.30;;;19.20;96.80;;;;;;25593028;23;20459;-61
2023/09/27 14:52:11;;;;;;;6.43;2.95;;;18.80;98.10;;;;;;25592137;23;20032;-60
2023/09/27 15:02:13;;;;;;;5.30;2.25;;;18.60;97.40;;;;;;25592310;23;20051;-61
2023/09/27 15:12:15;;;;;;;5.20;2.50;;;18.50;95.10;;;;;;25592297;23;20251;-61
2023/09/27 15:22:16;;;;;;;7.63;2.65;;;18.30;95.50;;;;;;25591166;23;20005;-61
2023/09/27 15:32:18;;;;;;;5.00;2.65;;;18.00;95.80;;;;;;25591189;23;20013;-60
2023/09/27 15:42:20;;;;;;;6.82;2.65;;;17.60;96.90;;;;;;25590766;23;20032;-61
2023/09/27 15:52:24;;;;;;;8.65;3.88;;;16.90;98.10;;;;;;25590277;23;20004;-59
2023/09/27 16:02:26;;;;;;;4.63;2.65;;;16.10;99.90;;;;;;25590029;23;20056;-59
2023/09/27 16:12:28;;;;;;;9.63;3.10;;;15.30;99.90;;;;;;25589698;23;20011;-47
2023/09/27 16:22:30;;;;;;;3.97;2.80;;;14.80;99.90;;;;;;25589649;23;20048;-60
2023/09/27 16:32:31;;;;;;;6.65;3.40;;;14.40;99.90;;;;;;25590442;23;20048;-60
2023/09/27 16:42:34;;;;;;;6.18;3.40;;;14.10;99.90;;;;;;25590007;23;20009;-60
2023/09/27 16:52:36;;;;;;;5.75;3.20;;;13.70;99.90;;;;;;25589222;23;20005;-59
2023/09/27 17:02:40;;;;;;;11.82;3.58;;;13.30;99.90;;;;;;25584653;23;20249;-59
2023/09/27 17:12:42;;;;;;;7.85;3.78;;;12.80;99.90;;;;;;25587189;23;20001;-59
2023/09/27 17:22:44;;;;;;;9.35;3.60;;;12.50;99.90;;;;;;25587274;23;20009;-59
2023/09/27 17:32:46;;;;;;;7.50;3.20;;;12.30;99.90;;;;;;25587054;23;20013;-58
2023/09/27 17:42:49;;;;;;;6.13;3.33;;;12.20;99.90;;;;;;25587039;23;20012;-58
2023/09/27 17:52:52;;;;;;;6.45;3.22;;;12.00;99.90;;;;;;25586474;23;20005;-58
2023/09/27 18:02:53;;;;;;;8.65;3.40;;;11.90;99.90;;;;;;25586667;23;20444;-59
2023/09/27 18:12:55;;;;;;;7.47;3.80;;;11.70;99.90;;;;;;25590087;23;20009;-59
2023/09/27 18:22:57;;;;;;;6.90;3.95;;;11.70;99.90;;;;;;25593289;23;20009;-59
2023/09/27 18:32:59;;;;;;;6.40;4.22;;;11.60;99.90;;;;;;25592946;23;20076;-48
2023/09/27 18:43:01;;;;;;;8.32;3.97;;;11.60;99.90;;;;;;25592942;23;20013;-60
2023/09/27 18:53:03;;;;;;;7.63;3.50;;;11.40;99.90;;;;;;25590646;23;20013;-59
2023/09/27 19:03:05;;;;;;;8.02;4.32;;;11.30;99.90;;;;;;25591460;23;20333;-60
2023/09/27 19:13:07;;;;;;;5.30;3.70;;;11.40;99.90;;;;;;25591585;23;20016;-58
2023/09/27 19:23:10;;;;;;;5.93;3.67;;;11.30;99.90;;;;;;25590649;23;20433;-58
2023/09/27 19:33:12;;;;;;;6.88;4.13;;;11.30;99.90;;;;;;25590361;23;20333;-58
2023/09/27 19:43:14;;;;;;;7.47;4.20;;;11.10;99.90;;;;;;25590465;23;20005;-50
2023/09/27 19:53:16;;;;;;;8.57;4.15;;;11.00;99.90;;;;;;25563568;23;20005;-59
2023/09/27 20:03:18;;;;;;;8.05;4.25;;;11.00;99.90;;;;;;25589676;23;20005;-59
2023/09/27 20:13:20;;;;;;;11.23;3.85;;;11.00;99.90;;;;;;25589155;23;20060;-58
2023/09/27 20:23:21;;;;;;;6.32;3.28;;;10.90;99.90;;;;;;25588726;23;20117;-52
2023/09/27 20:33:24;;;;;;;6.63;3.30;;;11.00;99.90;;;;;;25589087;23;20063;-48
2023/09/27 20:43:25;;;;;;;6.75;3.72;;;11.20;99.90;;;;;;25588169;23;20009;-52
2023/09/27 20:53:27;;;;;;;7.22;3.35;;;11.00;99.90;;;;;;25587840;23;20013;-51
2023/09/27 21:03:29;;;;;;;6.32;3.40;;;10.90;99.90;;;;;;25587743;23;20452;-48
2023/09/27 21:13:31;;;;;;;5.90;3.40;;;10.80;99.90;;;;;;25587404;23;20051;-58
2023/09/27 21:23:34;;;;;;;4.88;2.90;;;10.70;99.90;;;;;;25587174;23;20511;-58
2023/09/27 21:33:36;;;;;;;6.85;3.15;;;10.40;99.90;;;;;;25586736;23;20009;-58
2023/09/27 21:43:38;;;;;;;5.75;3.20;;;10.70;99.90;;;;;;25587679;23;20001;-53
2023/09/27 21:53:40;;;;;;;6.97;3.25;;;10.60;99.90;;;;;;25594655;23;20001;-52
2023/09/27 22:03:43;;;;;;;5.82;3.50;;;10.40;99.90;;;;;;25594241;23;20001;-49
2023/09/27 22:13:47;;;;;;;8.38;3.40;;;10.10;99.90;;;;;;25593466;23;20005;-49
2023/09/27 22:23:49;;;;;;;5.65;3.53;;;10.20;99.90;;;;;;25592914;23;20016;-52
2023/09/27 22:33:51;;;;;;;5.53;3.35;;;10.10;99.90;;;;;;25591890;23;20009;-51
2023/09/27 22:43:53;;;;;;;7.97;3.92;;;10.10;99.90;;;;;;25592768;23;20405;-51
2023/09/27 22:53:54;;;;;;;9.38;3.72;;;10.10;99.90;;;;;;25592394;23;20036;-52
2023/09/27 23:03:58;;;;;;;8.02;3.78;;;10.00;99.90;;;;;;25591676;23;20001;-58
2023/09/27 23:14:04;;;;;;;7.38;3.50;;;9.90;99.90;;;;;;25564913;23;20052;-58
2023/09/27 23:34:20;;;;;;;3.95;2.95;;;9.80;99.90;;;;;;25605170;23;20440;-59
2023/09/27 23:44:23;;;;;;;8.70;3.03;;;10.00;99.90;;;;;;25590491;23;20009;-52
2023/09/27 23:54:25;;;;;;;10.52;3.30;;;10.10;99.90;;;;;;25564764;23;20009;-58
